sensor_id;sensor_type;location;lat;lon;timestamp;P1;durP1;ratioP1;P2;durP2;ratioP2
73938;SDS011;62291;47.554;8.504;2023-08-20T00:00:22;10.70;;;7.30;;
73938;SDS011;62291;47.554;8.504;2023-08-20T00:02:48;12.98;;;8.05;;
73938;SDS011;62291;47.554;8.504;2023-08-20T00:05:19;12.45;;;9.98;;
73938;SDS011;62291;47.554;8.504;2023-08-20T00:07:45;9.75;;;8.00;;
73938;SDS011;62291;47.554;8.504;2023-08-20T00:10:11;11.60;;;7.85;;
73938;SDS011;62291;47.554;8.504;2023-08-20T00:12:37;9.85;;;7.50;;
73938;SDS011;62291;47.554;8.504;2023-08-20T00:15:03;10.50;;;8.40;;
73938;SDS011;62291;47.554;8.504;2023-08-20T00:17:30;13.02;;;8.40;;
73938;SDS011;62291;47.554;8.504;2023-08-20T00:20:00;13.13;;;8.73;;
73938;SDS011;62291;47.554;8.504;2023-08-20T00:22:33;9.77;;;8.50;;
73938;SDS011;62291;47.554;8.504;2023-08-20T00:24:59;10.70;;;9.23;;
73938;SDS011;62291;47.554;8.504;2023-08-20T00:27:25;16.40;;;9.88;;
73938;SDS011;62291;47.554;8.504;2023-08-20T00:29:51;10.73;;;8.90;;
73938;SDS011;62291;47.554;8.504;2023-08-20T00:32:16;11.98;;;9.63;;
73938;SDS011;62291;47.554;8.504;2023-08-20T00:34:43;13.30;;;8.50;;
73938;SDS011;62291;47.554;8.504;2023-08-20T00:37:09;10.15;;;7.93;;
73938;SDS011;62291;47.554;8.504;2023-08-20T00:39:34;11.63;;;8.52;;
73938;SDS011;62291;47.554;8.504;2023-08-20T00:42:00;8.95;;;7.93;;
73938;SDS011;62291;47.554;8.504;2023-08-20T00:44:26;11.30;;;9.88;;
73938;SDS011;62291;47.554;8.504;2023-08-20T00:46:52;13.65;;;11.32;;
73938;SDS011;62291;47.554;8.504;2023-08-20T00:49:18;14.93;;;9.60;;
73938;SDS011;62291;47.554;8.504;2023-08-20T00:51:44;12.88;;;8.90;;
73938;SDS011;62291;47.554;8.504;2023-08-20T00:54:10;15.60;;;9.25;;
73938;SDS011;62291;47.554;8.504;2023-08-20T00:56:37;16.27;;;9.00;;
73938;SDS011;62291;47.554;8.504;2023-08-20T00:59:04;12.60;;;8.80;;
73938;SDS011;62291;47.554;8.504;2023-08-20T01:01:30;12.82;;;7.95;;
73938;SDS011;62291;47.554;8.504;2023-08-20T01:03:56;11.88;;;8.90;;
73938;SDS011;62291;47.554;8.504;2023-08-20T01:09:17;10.77;;;8.60;;
73938;SDS011;62291;47.554;8.504;2023-08-20T01:11:55;13.40;;;8.60;;
73938;SDS011;62291;47.554;8.504;2023-08-20T01:14:25;14.98;;;8.85;;
73938;SDS011;62291;47.554;8.504;2023-08-20T01:16:51;12.82;;;8.63;;
73938;SDS011;62291;47.554;8.504;2023-08-20T01:19:18;12.85;;;9.07;;
73938;SDS011;62291;47.554;8.504;2023-08-20T01:21:56;12.27;;;8.98;;
73938;SDS011;62291;47.554;8.504;2023-08-20T01:30:45;15.88;;;9.27;;
73938;SDS011;62291;47.554;8.504;2023-08-20T01:33:11;13.27;;;9.35;;
73938;SDS011;62291;47.554;8.504;2023-08-20T01:35:37;16.00;;;9.70;;
73938;SDS011;62291;47.554;8.504;2023-08-20T01:38:03;9.77;;;8.85;;
73938;SDS011;62291;47.554;8.504;2023-08-20T01:40:30;15.50;;;9.50;;
73938;SDS011;62291;47.554;8.504;2023-08-20T01:42:56;20.75;;;10.40;;
73938;SDS011;62291;47.554;8.504;2023-08-20T01:45:22;11.13;;;9.13;;
73938;SDS011;62291;47.554;8.504;2023-08-20T01:47:48;15.32;;;9.88;;
73938;SDS011;62291;47.554;8.504;2023-08-20T01:50:14;14.23;;;9.45;;
73938;SDS011;62291;47.554;8.504;2023-08-20T01:52:40;11.48;;;9.38;;
73938;SDS011;62291;47.554;8.504;2023-08-20T01:55:06;12.25;;;9.70;;
73938;SDS011;62291;47.554;8.504;2023-08-20T01:57:32;14.07;;;9.40;;
73938;SDS011;62291;47.554;8.504;2023-08-20T01:59:58;15.48;;;9.75;;
73938;SDS011;62291;47.554;8.504;2023-08-20T02:02:24;15.95;;;9.13;;
73938;SDS011;62291;47.554;8.504;2023-08-20T02:04:49;15.85;;;9.30;;
73938;SDS011;62291;47.554;8.504;2023-08-20T02:07:15;16.75;;;10.98;;
73938;SDS011;62291;47.554;8.504;2023-08-20T02:09:41;13.98;;;11.85;;
73938;SDS011;62291;47.554;8.504;2023-08-20T02:12:07;15.48;;;9.55;;
73938;SDS011;62291;47.554;8.504;2023-08-20T02:14:34;14.18;;;9.90;;
73938;SDS011;62291;47.554;8.504;2023-08-20T02:17:00;15.32;;;9.93;;
73938;SDS011;62291;47.554;8.504;2023-08-20T02:19:30;11.13;;;9.88;;
73938;SDS011;62291;47.554;8.504;2023-08-20T02:21:55;11.60;;;9.68;;
73938;SDS011;62291;47.554;8.504;2023-08-20T02:24:21;12.73;;;9.93;;
73938;SDS011;62291;47.554;8.504;2023-08-20T02:26:47;14.77;;;9.80;;
73938;SDS011;62291;47.554;8.504;2023-08-20T02:29:13;14.40;;;9.48;;
73938;SDS011;62291;47.554;8.504;2023-08-20T02:31:38;13.02;;;9.35;;
73938;SDS011;62291;47.554;8.504;2023-08-20T02:34:04;16.58;;;10.30;;
73938;SDS011;62291;47.554;8.504;2023-08-20T02:36:30;13.63;;;10.48;;
73938;SDS011;62291;47.554;8.504;2023-08-20T02:38:55;17.83;;;10.60;;
73938;SDS011;62291;47.554;8.504;2023-08-20T02:41:21;13.32;;;8.75;;
73938;SDS011;62291;47.554;8.504;2023-08-20T02:43:47;11.23;;;8.52;;
73938;SDS011;62291;47.554;8.504;2023-08-20T02:46:14;15.63;;;10.77;;
73938;SDS011;62291;47.554;8.504;2023-08-20T02:48:39;20.50;;;11.95;;
73938;SDS011;62291;47.554;8.504;2023-08-20T02:51:05;11.82;;;9.45;;
73938;SDS011;62291;47.554;8.504;2023-08-20T02:53:31;14.05;;;9.43;;
73938;SDS011;62291;47.554;8.504;2023-08-20T02:55:57;15.15;;;10.30;;
73938;SDS011;62291;47.554;8.504;2023-08-20T02:58:23;18.38;;;10.90;;
73938;SDS011;62291;47.554;8.504;2023-08-20T03:00:49;9.82;;;8.60;;
73938;SDS011;62291;47.554;8.504;2023-08-20T03:03:15;10.73;;;8.80;;
73938;SDS011;62291;47.554;8.504;2023-08-20T03:05:42;11.25;;;8.18;;
73938;SDS011;62291;47.554;8.504;2023-08-20T03:08:08;13.63;;;9.20;;
73938;SDS011;62291;47.554;8.504;2023-08-20T03:10:34;18.25;;;13.05;;
73938;SDS011;62291;47.554;8.504;2023-08-20T03:13:03;14.63;;;11.35;;
73938;SDS011;62291;47.554;8.504;2023-08-20T03:15:29;13.75;;;10.23;;
73938;SDS011;62291;47.554;8.504;2023-08-20T03:17:55;15.75;;;12.00;;
73938;SDS011;62291;47.554;8.504;2023-08-20T03:20:21;14.18;;;8.68;;
73938;SDS011;62291;47.554;8.504;2023-08-20T03:22:47;14.35;;;10.05;;
73938;SDS011;62291;47.554;8.504;2023-08-20T03:25:13;14.65;;;8.50;;
73938;SDS011;62291;47.554;8.504;2023-08-20T03:27:38;16.20;;;9.93;;
73938;SDS011;62291;47.554;8.504;2023-08-20T03:30:04;11.55;;;10.35;;
73938;SDS011;62291;47.554;8.504;2023-08-20T03:32:31;13.93;;;9.80;;
73938;SDS011;62291;47.554;8.504;2023-08-20T03:34:57;16.17;;;11.25;;
73938;SDS011;62291;47.554;8.504;2023-08-20T03:37:24;12.77;;;10.25;;
73938;SDS011;62291;47.554;8.504;2023-08-20T03:39:50;16.75;;;10.38;;
73938;SDS011;62291;47.554;8.504;2023-08-20T03:42:16;12.40;;;10.77;;
73938;SDS011;62291;47.554;8.504;2023-08-20T03:44:42;12.82;;;10.30;;
73938;SDS011;62291;47.554;8.504;2023-08-20T03:47:08;12.35;;;10.07;;
73938;SDS011;62291;47.554;8.504;2023-08-20T03:49:34;19.73;;;11.98;;
73938;SDS011;62291;47.554;8.504;2023-08-20T03:51:59;14.80;;;10.27;;
73938;SDS011;62291;47.554;8.504;2023-08-20T03:54:27;16.60;;;10.77;;
73938;SDS011;62291;47.554;8.504;2023-08-20T03:56:54;16.00;;;10.43;;
73938;SDS011;62291;47.554;8.504;2023-08-20T03:59:20;11.85;;;10.52;;
73938;SDS011;62291;47.554;8.504;2023-08-20T04:01:45;19.10;;;13.80;;
73938;SDS011;62291;47.554;8.504;2023-08-20T04:04:11;16.63;;;12.82;;
73938;SDS011;62291;47.554;8.504;2023-08-20T04:06:37;21.27;;;13.48;;
73938;SDS011;62291;47.554;8.504;2023-08-20T04:09:02;12.70;;;10.23;;
73938;SDS011;62291;47.554;8.504;2023-08-20T04:11:28;17.08;;;10.75;;
73938;SDS011;62291;47.554;8.504;2023-08-20T04:13:54;15.93;;;10.20;;
73938;SDS011;62291;47.554;8.504;2023-08-20T04:16:20;19.10;;;11.80;;
73938;SDS011;62291;47.554;8.504;2023-08-20T04:18:46;13.77;;;11.65;;
73938;SDS011;62291;47.554;8.504;2023-08-20T04:21:13;16.48;;;11.40;;
73938;SDS011;62291;47.554;8.504;2023-08-20T04:23:38;13.70;;;10.43;;
73938;SDS011;62291;47.554;8.504;2023-08-20T04:26:06;11.30;;;10.13;;
73938;SDS011;62291;47.554;8.504;2023-08-20T04:28:32;11.50;;;9.80;;
73938;SDS011;62291;47.554;8.504;2023-08-20T04:30:58;10.57;;;8.75;;
73938;SDS011;62291;47.554;8.504;2023-08-20T04:33:25;11.95;;;9.52;;
73938;SDS011;62291;47.554;8.504;2023-08-20T04:35:51;18.83;;;11.13;;
73938;SDS011;62291;47.554;8.504;2023-08-20T04:38:17;14.35;;;10.60;;
73938;SDS011;62291;47.554;8.504;2023-08-20T04:40:47;14.18;;;9.77;;
73938;SDS011;62291;47.554;8.504;2023-08-20T04:43:13;18.83;;;12.07;;
73938;SDS011;62291;47.554;8.504;2023-08-20T04:45:40;15.45;;;10.65;;
73938;SDS011;62291;47.554;8.504;2023-08-20T04:48:06;15.90;;;10.75;;
73938;SDS011;62291;47.554;8.504;2023-08-20T04:50:32;13.52;;;10.80;;
73938;SDS011;62291;47.554;8.504;2023-08-20T04:52:57;11.90;;;10.52;;
73938;SDS011;62291;47.554;8.504;2023-08-20T04:55:25;13.13;;;10.60;;
73938;SDS011;62291;47.554;8.504;2023-08-20T04:57:51;11.88;;;9.52;;
73938;SDS011;62291;47.554;8.504;2023-08-20T05:00:16;9.88;;;8.88;;
73938;SDS011;62291;47.554;8.504;2023-08-20T05:02:42;9.98;;;8.48;;
73938;SDS011;62291;47.554;8.504;2023-08-20T05:05:08;9.50;;;7.68;;
73938;SDS011;62291;47.554;8.504;2023-08-20T05:07:34;8.27;;;7.53;;
73938;SDS011;62291;47.554;8.504;2023-08-20T05:10:00;11.68;;;7.32;;
73938;SDS011;62291;47.554;8.504;2023-08-20T05:12:25;8.50;;;7.28;;
73938;SDS011;62291;47.554;8.504;2023-08-20T05:14:51;8.20;;;7.15;;
73938;SDS011;62291;47.554;8.504;2023-08-20T05:17:16;8.90;;;7.40;;
73938;SDS011;62291;47.554;8.504;2023-08-20T05:19:42;9.82;;;6.85;;
73938;SDS011;62291;47.554;8.504;2023-08-20T05:22:08;11.48;;;7.70;;
73938;SDS011;62291;47.554;8.504;2023-08-20T05:24:35;13.07;;;7.65;;
73938;SDS011;62291;47.554;8.504;2023-08-20T05:29:31;8.95;;;7.25;;
73938;SDS011;62291;47.554;8.504;2023-08-20T05:31:56;10.43;;;7.20;;
73938;SDS011;62291;47.554;8.504;2023-08-20T05:34:22;8.98;;;7.82;;
73938;SDS011;62291;47.554;8.504;2023-08-20T05:36:48;9.23;;;7.85;;
73938;SDS011;62291;47.554;8.504;2023-08-20T05:39:13;10.68;;;7.82;;
73938;SDS011;62291;47.554;8.504;2023-08-20T05:41:39;8.23;;;7.32;;
73938;SDS011;62291;47.554;8.504;2023-08-20T05:44:05;8.52;;;7.63;;
73938;SDS011;62291;47.554;8.504;2023-08-20T05:46:30;8.45;;;7.50;;
73938;SDS011;62291;47.554;8.504;2023-08-20T05:48:56;13.55;;;8.45;;
73938;SDS011;62291;47.554;8.504;2023-08-20T05:51:22;11.50;;;8.50;;
73938;SDS011;62291;47.554;8.504;2023-08-20T05:53:47;11.80;;;8.07;;
73938;SDS011;62291;47.554;8.504;2023-08-20T05:56:13;8.95;;;8.05;;
73938;SDS011;62291;47.554;8.504;2023-08-20T05:58:39;11.20;;;8.48;;
73938;SDS011;62291;47.554;8.504;2023-08-20T06:01:04;15.05;;;8.93;;
73938;SDS011;62291;47.554;8.504;2023-08-20T06:03:30;9.55;;;8.57;;
73938;SDS011;62291;47.554;8.504;2023-08-20T06:05:58;12.75;;;8.73;;
73938;SDS011;62291;47.554;8.504;2023-08-20T06:08:24;13.80;;;9.13;;
73938;SDS011;62291;47.554;8.504;2023-08-20T06:10:50;11.80;;;7.95;;
73938;SDS011;62291;47.554;8.504;2023-08-20T06:13:16;13.02;;;8.02;;
73938;SDS011;62291;47.554;8.504;2023-08-20T06:15:41;8.82;;;8.00;;
73938;SDS011;62291;47.554;8.504;2023-08-20T06:18:07;10.35;;;8.20;;
73938;SDS011;62291;47.554;8.504;2023-08-20T06:20:33;10.13;;;7.63;;
73938;SDS011;62291;47.554;8.504;2023-08-20T06:22:59;13.88;;;7.88;;
73938;SDS011;62291;47.554;8.504;2023-08-20T06:25:24;7.85;;;7.05;;
73938;SDS011;62291;47.554;8.504;2023-08-20T06:27:50;16.25;;;7.28;;
73938;SDS011;62291;47.554;8.504;2023-08-20T06:30:16;9.77;;;7.22;;
73938;SDS011;62291;47.554;8.504;2023-08-20T06:32:42;11.15;;;7.38;;
73938;SDS011;62291;47.554;8.504;2023-08-20T06:35:09;10.13;;;7.22;;
73938;SDS011;62291;47.554;8.504;2023-08-20T06:37:35;9.55;;;7.53;;
73938;SDS011;62291;47.554;8.504;2023-08-20T06:40:00;9.93;;;7.35;;
73938;SDS011;62291;47.554;8.504;2023-08-20T06:42:26;10.48;;;7.35;;
73938;SDS011;62291;47.554;8.504;2023-08-20T06:44:52;9.70;;;7.35;;
73938;SDS011;62291;47.554;8.504;2023-08-20T06:47:17;9.77;;;7.38;;
73938;SDS011;62291;47.554;8.504;2023-08-20T06:49:43;9.18;;;6.90;;
73938;SDS011;62291;47.554;8.504;2023-08-20T06:52:09;8.13;;;7.30;;
73938;SDS011;62291;47.554;8.504;2023-08-20T06:54:35;8.02;;;7.20;;
73938;SDS011;62291;47.554;8.504;2023-08-20T06:57:00;9.43;;;7.32;;
73938;SDS011;62291;47.554;8.504;2023-08-20T06:59:26;8.50;;;6.97;;
73938;SDS011;62291;47.554;8.504;2023-08-20T07:01:52;9.13;;;6.97;;
73938;SDS011;62291;47.554;8.504;2023-08-20T07:04:18;9.57;;;7.18;;
73938;SDS011;62291;47.554;8.504;2023-08-20T07:06:43;11.05;;;6.93;;
73938;SDS011;62291;47.554;8.504;2023-08-20T07:09:09;10.48;;;6.68;;
73938;SDS011;62291;47.554;8.504;2023-08-20T07:11:35;10.43;;;7.15;;
73938;SDS011;62291;47.554;8.504;2023-08-20T07:14:01;11.52;;;6.80;;
73938;SDS011;62291;47.554;8.504;2023-08-20T07:16:26;9.60;;;7.10;;
73938;SDS011;62291;47.554;8.504;2023-08-20T07:18:52;9.98;;;7.25;;
73938;SDS011;62291;47.554;8.504;2023-08-20T07:21:18;12.82;;;7.65;;
73938;SDS011;62291;47.554;8.504;2023-08-20T07:23:44;12.10;;;7.25;;
73938;SDS011;62291;47.554;8.504;2023-08-20T07:26:10;11.70;;;7.55;;
73938;SDS011;62291;47.554;8.504;2023-08-20T07:28:40;8.80;;;7.80;;
73938;SDS011;62291;47.554;8.504;2023-08-20T07:31:28;8.85;;;7.18;;
73938;SDS011;62291;47.554;8.504;2023-08-20T07:33:56;11.95;;;7.10;;
73938;SDS011;62291;47.554;8.504;2023-08-20T07:36:23;11.50;;;6.82;;
73938;SDS011;62291;47.554;8.504;2023-08-20T07:38:53;9.15;;;6.60;;
73938;SDS011;62291;47.554;8.504;2023-08-20T07:41:19;8.50;;;6.75;;
73938;SDS011;62291;47.554;8.504;2023-08-20T07:43:46;9.55;;;6.65;;
73938;SDS011;62291;47.554;8.504;2023-08-20T07:46:12;7.55;;;6.80;;
73938;SDS011;62291;47.554;8.504;2023-08-20T07:48:38;9.57;;;7.20;;
73938;SDS011;62291;47.554;8.504;2023-08-20T07:51:04;9.02;;;7.47;;
73938;SDS011;62291;47.554;8.504;2023-08-20T07:53:31;7.93;;;7.05;;
73938;SDS011;62291;47.554;8.504;2023-08-20T07:55:57;9.73;;;6.60;;
73938;SDS011;62291;47.554;8.504;2023-08-20T07:58:22;9.73;;;7.20;;
73938;SDS011;62291;47.554;8.504;2023-08-20T08:00:48;10.23;;;7.32;;
73938;SDS011;62291;47.554;8.504;2023-08-20T08:03:14;13.90;;;6.93;;
73938;SDS011;62291;47.554;8.504;2023-08-20T08:05:40;7.80;;;6.63;;
73938;SDS011;62291;47.554;8.504;2023-08-20T08:08:06;10.75;;;7.10;;
73938;SDS011;62291;47.554;8.504;2023-08-20T08:10:32;11.98;;;6.82;;
73938;SDS011;62291;47.554;8.504;2023-08-20T08:12:57;10.73;;;7.03;;
73938;SDS011;62291;47.554;8.504;2023-08-20T08:15:23;8.35;;;7.00;;
73938;SDS011;62291;47.554;8.504;2023-08-20T08:17:49;9.00;;;7.10;;
73938;SDS011;62291;47.554;8.504;2023-08-20T08:20:14;11.45;;;6.88;;
73938;SDS011;62291;47.554;8.504;2023-08-20T08:22:40;7.90;;;6.50;;
73938;SDS011;62291;47.554;8.504;2023-08-20T08:25:06;8.38;;;6.50;;
73938;SDS011;62291;47.554;8.504;2023-08-20T08:27:32;9.05;;;6.40;;
73938;SDS011;62291;47.554;8.504;2023-08-20T08:29:57;9.75;;;6.32;;
73938;SDS011;62291;47.554;8.504;2023-08-20T08:32:23;10.07;;;6.18;;
73938;SDS011;62291;47.554;8.504;2023-08-20T08:34:49;8.60;;;6.30;;
73938;SDS011;62291;47.554;8.504;2023-08-20T08:37:15;10.05;;;6.25;;
73938;SDS011;62291;47.554;8.504;2023-08-20T08:39:41;9.27;;;6.60;;
73938;SDS011;62291;47.554;8.504;2023-08-20T08:42:07;9.98;;;6.40;;
73938;SDS011;62291;47.554;8.504;2023-08-20T08:44:36;8.77;;;6.38;;
73938;SDS011;62291;47.554;8.504;2023-08-20T08:47:02;10.10;;;6.00;;
73938;SDS011;62291;47.554;8.504;2023-08-20T08:49:33;10.98;;;5.72;;
73938;SDS011;62291;47.554;8.504;2023-08-20T08:51:59;10.98;;;6.20;;
73938;SDS011;62291;47.554;8.504;2023-08-20T08:54:26;8.80;;;5.50;;
73938;SDS011;62291;47.554;8.504;2023-08-20T08:56:52;11.48;;;5.50;;
73938;SDS011;62291;47.554;8.504;2023-08-20T08:59:18;9.25;;;5.80;;
73938;SDS011;62291;47.554;8.504;2023-08-20T09:01:44;7.72;;;5.78;;
73938;SDS011;62291;47.554;8.504;2023-08-20T09:04:10;8.85;;;5.88;;
73938;SDS011;62291;47.554;8.504;2023-08-20T09:06:49;10.70;;;5.97;;
73938;SDS011;62291;47.554;8.504;2023-08-20T09:09:16;12.35;;;6.18;;
73938;SDS011;62291;47.554;8.504;2023-08-20T09:11:43;9.95;;;5.90;;
73938;SDS011;62291;47.554;8.504;2023-08-20T09:14:28;11.38;;;5.90;;
73938;SDS011;62291;47.554;8.504;2023-08-20T09:16:58;11.60;;;6.85;;
73938;SDS011;62291;47.554;8.504;2023-08-20T09:19:27;11.00;;;6.43;;
73938;SDS011;62291;47.554;8.504;2023-08-20T09:21:55;8.27;;;5.70;;
73938;SDS011;62291;47.554;8.504;2023-08-20T09:27:05;10.20;;;5.85;;
73938;SDS011;62291;47.554;8.504;2023-08-20T09:29:31;8.25;;;6.28;;
73938;SDS011;62291;47.554;8.504;2023-08-20T09:32:01;10.20;;;6.47;;
73938;SDS011;62291;47.554;8.504;2023-08-20T09:34:37;8.05;;;5.88;;
73938;SDS011;62291;47.554;8.504;2023-08-20T09:37:15;9.93;;;5.68;;
73938;SDS011;62291;47.554;8.504;2023-08-20T09:39:42;10.50;;;6.13;;
73938;SDS011;62291;47.554;8.504;2023-08-20T09:42:09;10.48;;;6.00;;
73938;SDS011;62291;47.554;8.504;2023-08-20T09:44:36;13.45;;;5.93;;
73938;SDS011;62291;47.554;8.504;2023-08-20T09:47:07;10.05;;;5.80;;
73938;SDS011;62291;47.554;8.504;2023-08-20T09:49:38;10.80;;;6.07;;
73938;SDS011;62291;47.554;8.504;2023-08-20T09:52:12;11.65;;;5.47;;
73938;SDS011;62291;47.554;8.504;2023-08-20T10:00:07;9.23;;;5.60;;
73938;SDS011;62291;47.554;8.504;2023-08-20T10:02:37;11.05;;;5.47;;
73938;SDS011;62291;47.554;8.504;2023-08-20T10:05:05;8.57;;;5.35;;
73938;SDS011;62291;47.554;8.504;2023-08-20T10:07:31;9.23;;;5.05;;
73938;SDS011;62291;47.554;8.504;2023-08-20T10:09:57;7.38;;;5.32;;
73938;SDS011;62291;47.554;8.504;2023-08-20T10:12:28;7.70;;;5.57;;
73938;SDS011;62291;47.554;8.504;2023-08-20T10:14:55;9.20;;;5.53;;
73938;SDS011;62291;47.554;8.504;2023-08-20T10:17:22;13.55;;;5.53;;
73938;SDS011;62291;47.554;8.504;2023-08-20T10:19:49;9.93;;;5.20;;
73938;SDS011;62291;47.554;8.504;2023-08-20T10:22:16;7.55;;;4.93;;
73938;SDS011;62291;47.554;8.504;2023-08-20T10:24:50;9.23;;;5.50;;
73938;SDS011;62291;47.554;8.504;2023-08-20T10:27:23;7.95;;;5.20;;
73938;SDS011;62291;47.554;8.504;2023-08-20T10:29:50;9.77;;;5.45;;
73938;SDS011;62291;47.554;8.504;2023-08-20T10:32:20;7.38;;;5.50;;
73938;SDS011;62291;47.554;8.504;2023-08-20T10:35:06;9.85;;;5.30;;
73938;SDS011;62291;47.554;8.504;2023-08-20T10:37:33;10.45;;;5.03;;
73938;SDS011;62291;47.554;8.504;2023-08-20T10:39:59;11.20;;;5.43;;
73938;SDS011;62291;47.554;8.504;2023-08-20T10:42:25;10.00;;;4.97;;
73938;SDS011;62291;47.554;8.504;2023-08-20T10:44:58;10.93;;;5.20;;
73938;SDS011;62291;47.554;8.504;2023-08-20T10:50:02;10.38;;;5.45;;
73938;SDS011;62291;47.554;8.504;2023-08-20T10:52:28;11.00;;;5.18;;
73938;SDS011;62291;47.554;8.504;2023-08-20T10:54:55;8.50;;;5.50;;
73938;SDS011;62291;47.554;8.504;2023-08-20T10:57:21;9.15;;;5.60;;
73938;SDS011;62291;47.554;8.504;2023-08-20T10:59:57;10.38;;;5.20;;
73938;SDS011;62291;47.554;8.504;2023-08-20T11:02:23;8.65;;;5.07;;
73938;SDS011;62291;47.554;8.504;2023-08-20T11:04:49;9.32;;;5.32;;
73938;SDS011;62291;47.554;8.504;2023-08-20T11:07:17;7.55;;;5.65;;
73938;SDS011;62291;47.554;8.504;2023-08-20T11:09:44;13.13;;;5.63;;
73938;SDS011;62291;47.554;8.504;2023-08-20T11:12:14;8.57;;;5.10;;
73938;SDS011;62291;47.554;8.504;2023-08-20T11:14:40;14.38;;;5.50;;
73938;SDS011;62291;47.554;8.504;2023-08-20T11:17:06;10.35;;;4.88;;
73938;SDS011;62291;47.554;8.504;2023-08-20T11:19:33;15.02;;;5.30;;
73938;SDS011;62291;47.554;8.504;2023-08-20T11:21:59;9.65;;;5.38;;
73938;SDS011;62291;47.554;8.504;2023-08-20T11:24:28;13.45;;;5.63;;
73938;SDS011;62291;47.554;8.504;2023-08-20T11:26:54;12.27;;;4.90;;
73938;SDS011;62291;47.554;8.504;2023-08-20T11:29:25;10.23;;;4.97;;
73938;SDS011;62291;47.554;8.504;2023-08-20T11:31:51;7.78;;;5.15;;
73938;SDS011;62291;47.554;8.504;2023-08-20T11:34:20;9.30;;;5.28;;
73938;SDS011;62291;47.554;8.504;2023-08-20T11:36:46;12.07;;;5.75;;
73938;SDS011;62291;47.554;8.504;2023-08-20T11:39:13;8.70;;;4.95;;
73938;SDS011;62291;47.554;8.504;2023-08-20T11:41:39;11.90;;;5.25;;
73938;SDS011;62291;47.554;8.504;2023-08-20T11:44:05;8.48;;;4.82;;
73938;SDS011;62291;47.554;8.504;2023-08-20T11:46:33;8.80;;;4.80;;
73938;SDS011;62291;47.554;8.504;2023-08-20T11:49:08;8.00;;;4.82;;
73938;SDS011;62291;47.554;8.504;2023-08-20T11:54:08;10.32;;;4.88;;
73938;SDS011;62291;47.554;8.504;2023-08-20T11:58:21;9.48;;;4.65;;
73938;SDS011;62291;47.554;8.504;2023-08-20T12:00:48;7.60;;;4.43;;
73938;SDS011;62291;47.554;8.504;2023-08-20T12:03:17;12.68;;;4.63;;
73938;SDS011;62291;47.554;8.504;2023-08-20T12:05:44;12.27;;;4.68;;
73938;SDS011;62291;47.554;8.504;2023-08-20T12:08:14;10.68;;;5.00;;
73938;SDS011;62291;47.554;8.504;2023-08-20T12:10:42;11.00;;;4.40;;
73938;SDS011;62291;47.554;8.504;2023-08-20T12:13:08;12.18;;;4.47;;
73938;SDS011;62291;47.554;8.504;2023-08-20T12:15:34;12.32;;;4.85;;
73938;SDS011;62291;47.554;8.504;2023-08-20T12:18:00;11.13;;;4.45;;
73938;SDS011;62291;47.554;8.504;2023-08-20T12:20:30;8.48;;;4.35;;
73938;SDS011;62291;47.554;8.504;2023-08-20T12:23:06;11.95;;;4.63;;
73938;SDS011;62291;47.554;8.504;2023-08-20T12:25:32;10.45;;;5.05;;
73938;SDS011;62291;47.554;8.504;2023-08-20T12:28:03;8.60;;;4.75;;
73938;SDS011;62291;47.554;8.504;2023-08-20T12:30:32;9.02;;;4.22;;
73938;SDS011;62291;47.554;8.504;2023-08-20T12:33:01;11.45;;;4.70;;
73938;SDS011;62291;47.554;8.504;2023-08-20T12:35:28;8.40;;;4.53;;
73938;SDS011;62291;47.554;8.504;2023-08-20T12:37:54;13.45;;;5.15;;
73938;SDS011;62291;47.554;8.504;2023-08-20T12:40:19;10.43;;;4.50;;
73938;SDS011;62291;47.554;8.504;2023-08-20T12:42:45;8.63;;;4.13;;
73938;SDS011;62291;47.554;8.504;2023-08-20T12:45:11;9.38;;;3.90;;
73938;SDS011;62291;47.554;8.504;2023-08-20T12:47:38;7.80;;;4.72;;
73938;SDS011;62291;47.554;8.504;2023-08-20T12:50:04;8.65;;;4.80;;
73938;SDS011;62291;47.554;8.504;2023-08-20T12:52:31;7.10;;;4.35;;
73938;SDS011;62291;47.554;8.504;2023-08-20T12:54:57;15.88;;;4.60;;
73938;SDS011;62291;47.554;8.504;2023-08-20T12:57:23;11.05;;;4.80;;
73938;SDS011;62291;47.554;8.504;2023-08-20T12:59:48;12.60;;;5.05;;
73938;SDS011;62291;47.554;8.504;2023-08-20T13:02:15;9.07;;;4.95;;
73938;SDS011;62291;47.554;8.504;2023-08-20T13:04:41;8.40;;;4.75;;
73938;SDS011;62291;47.554;8.504;2023-08-20T13:07:07;9.43;;;4.50;;
73938;SDS011;62291;47.554;8.504;2023-08-20T13:09:33;9.85;;;4.70;;
73938;SDS011;62291;47.554;8.504;2023-08-20T13:12:00;13.18;;;4.43;;
73938;SDS011;62291;47.554;8.504;2023-08-20T13:14:29;7.97;;;5.00;;
73938;SDS011;62291;47.554;8.504;2023-08-20T13:16:55;8.00;;;4.35;;
73938;SDS011;62291;47.554;8.504;2023-08-20T13:19:21;15.30;;;5.35;;
73938;SDS011;62291;47.554;8.504;2023-08-20T13:21:47;8.45;;;4.63;;
73938;SDS011;62291;47.554;8.504;2023-08-20T13:24:13;9.48;;;5.15;;
73938;SDS011;62291;47.554;8.504;2023-08-20T13:26:39;10.13;;;4.63;;
73938;SDS011;62291;47.554;8.504;2023-08-20T13:29:04;9.98;;;5.35;;
73938;SDS011;62291;47.554;8.504;2023-08-20T13:31:30;11.65;;;4.97;;
73938;SDS011;62291;47.554;8.504;2023-08-20T13:33:56;7.13;;;5.07;;
73938;SDS011;62291;47.554;8.504;2023-08-20T13:36:21;10.77;;;4.82;;
73938;SDS011;62291;47.554;8.504;2023-08-20T13:38:47;8.35;;;4.82;;
73938;SDS011;62291;47.554;8.504;2023-08-20T13:41:13;9.13;;;4.82;;
73938;SDS011;62291;47.554;8.504;2023-08-20T13:43:38;7.20;;;4.88;;
73938;SDS011;62291;47.554;8.504;2023-08-20T13:46:04;10.68;;;4.78;;
73938;SDS011;62291;47.554;8.504;2023-08-20T13:48:30;11.25;;;5.57;;
73938;SDS011;62291;47.554;8.504;2023-08-20T13:50:55;11.75;;;4.80;;
73938;SDS011;62291;47.554;8.504;2023-08-20T13:53:21;8.35;;;4.80;;
73938;SDS011;62291;47.554;8.504;2023-08-20T13:55:47;9.70;;;5.15;;
73938;SDS011;62291;47.554;8.504;2023-08-20T13:58:12;7.75;;;4.72;;
73938;SDS011;62291;47.554;8.504;2023-08-20T14:00:40;9.20;;;4.90;;
73938;SDS011;62291;47.554;8.504;2023-08-20T14:03:06;13.68;;;5.10;;
73938;SDS011;62291;47.554;8.504;2023-08-20T14:05:31;16.35;;;5.00;;
73938;SDS011;62291;47.554;8.504;2023-08-20T14:07:57;11.15;;;4.55;;
73938;SDS011;62291;47.554;8.504;2023-08-20T14:10:23;7.45;;;4.78;;
73938;SDS011;62291;47.554;8.504;2023-08-20T14:12:48;7.78;;;4.38;;
73938;SDS011;62291;47.554;8.504;2023-08-20T14:15:14;9.77;;;4.88;;
73938;SDS011;62291;47.554;8.504;2023-08-20T14:17:40;14.65;;;4.72;;
73938;SDS011;62291;47.554;8.504;2023-08-20T14:20:06;10.07;;;5.03;;
73938;SDS011;62291;47.554;8.504;2023-08-20T14:22:33;15.25;;;4.85;;
73938;SDS011;62291;47.554;8.504;2023-08-20T14:24:58;10.90;;;4.63;;
73938;SDS011;62291;47.554;8.504;2023-08-20T14:27:24;9.60;;;4.75;;
73938;SDS011;62291;47.554;8.504;2023-08-20T14:29:50;11.73;;;4.85;;
73938;SDS011;62291;47.554;8.504;2023-08-20T14:32:15;10.32;;;4.70;;
73938;SDS011;62291;47.554;8.504;2023-08-20T14:34:41;10.40;;;5.05;;
73938;SDS011;62291;47.554;8.504;2023-08-20T14:37:07;9.05;;;4.22;;
73938;SDS011;62291;47.554;8.504;2023-08-20T14:39:35;8.63;;;4.28;;
73938;SDS011;62291;47.554;8.504;2023-08-20T14:42:01;8.95;;;4.55;;
73938;SDS011;62291;47.554;8.504;2023-08-20T14:44:27;11.88;;;5.07;;
73938;SDS011;62291;47.554;8.504;2023-08-20T14:46:53;10.73;;;4.82;;
73938;SDS011;62291;47.554;8.504;2023-08-20T14:49:18;7.55;;;4.53;;
73938;SDS011;62291;47.554;8.504;2023-08-20T14:51:44;6.68;;;4.55;;
73938;SDS011;62291;47.554;8.504;2023-08-20T14:54:10;9.60;;;4.80;;
73938;SDS011;62291;47.554;8.504;2023-08-20T14:56:36;8.63;;;4.60;;
73938;SDS011;62291;47.554;8.504;2023-08-20T14:59:02;6.38;;;4.57;;
73938;SDS011;62291;47.554;8.504;2023-08-20T15:01:29;7.93;;;4.60;;